Impacts TAF Board
For situational awareness. Not to be used for flight planning purposes.
IDs:

KIAH - Houston/Bush Intl, TX, US

Issued at 1500 UTC 05 Aug 2020
Updated at 1549 UTC 05 Aug 2020
Potential Impact None Slight Moderate High
Time1453Z 05/16Z 05/17Z 05/18Z 05/19Z 05/20Z 05/21Z 05/22Z 05/23Z 06/00Z 06/01Z 06/02Z 06/03Z 06/04Z>>
Type OBS PRVL PRVL PRVL PRVL PRVL PRVL PRVL PRVL PRVL PRVL PRVL PRVL PRVL
VIS 10 >6 >6 >6 >6 >6 >6 >6 >6 >6 >6 >6 >6 >6
CIG -- -- -- -- -- 70 70 70 70 70 120 120 120 120
Cover FEW SCT SCT SCT SCT BKN BKN BKN BKN BKN BKN BKN BKN BKN
FltCat VFR VFR VFR VFR VFR VFR VFR VFR VFR VFR VFR VFR VFR VFR
WX -- -- -- -- -- VCTS VCTS VCTS VCTS VCTS -- -- -- --
WDir 230 230 230 230 230 170 170 170 170 170 160 160 160 160
WSpd 5 6 6 6 6 9 9 9 9 9 4 4 4 4
WGst -- -- -- -- -- -- -- -- -- -- -- -- -- --
R08/26
XWnd -3 -4 -4 -4 -4 -9 -9 -9 -9 -9 -4 -4 -4 -4
HWnd -4 -5 -5 -5 -5 2 2 2 2 2 1 1 1 1
R09/27
XWnd -3 -4 -4 -4 -4 -9 -9 -9 -9 -9 -4 -4 -4 -4
HWnd -4 -5 -5 -5 -5 2 2 2 2 2 1 1 1 1
R15/33
XWnd -5 -6 -6 -6 -6 -3 -3 -3 -3 -3 -1 -1 -1 -1
HWnd 1 1 1 1 1 9 9 9 9 9 4 4 4 4
Raw TAF
KIAH 051500Z 0515/0618 23006KT P6SM FEW030 SCT060
  FM052000 17009KT P6SM VCTS SCT040CB BKN070
  FM060100 16004KT P6SM BKN120


Raw METAR
KIAH 051453Z 23005KT 10SM FEW025 FEW150 30/24 A3001 RMK AO2 SLP161 T03000239 50012
KIAH 051353Z 25006KT 10SM FEW150 FEW250 29/24 A3002 RMK AO2 SLP163 T02890239
KIAH 051253Z 00000KT 10SM FEW150 FEW250 27/24 A3000 RMK AO2 SLP157 T02720239

METAR Board
Radar Display
Forecast Discussion
For situational awareness. Not to be used for flight planning purposes.